sensor_id;sensor_type;location;lat;lon;timestamp;pressure;altitude;pressure_sealevel;temperature;humidity
18749;BME280;9503;53.560;10.246;2023-04-10T00:02:09;101871.97;;;11.35;86.84
18749;BME280;9503;53.560;10.246;2023-04-10T00:04:36;101873.41;;;11.72;86.43
18749;BME280;9503;53.560;10.246;2023-04-10T00:07:02;101869.81;;;11.42;87.00
18749;BME280;9503;53.560;10.246;2023-04-10T00:09:29;101875.38;;;11.76;86.10
18749;BME280;9503;53.560;10.246;2023-04-10T00:11:56;101877.94;;;11.76;83.97
18749;BME280;9503;53.560;10.246;2023-04-10T00:14:24;101862.72;;;11.24;86.40
18749;BME280;9503;53.560;10.246;2023-04-10T00:16:51;101862.75;;;11.52;85.59
18749;BME280;9503;53.560;10.246;2023-04-10T00:19:17;101860.44;;;11.29;86.56
18749;BME280;9503;53.560;10.246;2023-04-10T00:21:44;101857.03;;;11.56;85.41
18749;BME280;9503;53.560;10.246;2023-04-10T00:24:11;101846.22;;;11.34;86.05
18749;BME280;9503;53.560;10.246;2023-04-10T00:26:37;101839.09;;;11.43;86.53
18749;BME280;9503;53.560;10.246;2023-04-10T00:29:04;101834.75;;;11.42;84.99
18749;BME280;9503;53.560;10.246;2023-04-10T00:31:32;101833.09;;;11.29;86.43
18749;BME280;9503;53.560;10.246;2023-04-10T00:33:58;101834.91;;;11.45;86.15
18749;BME280;9503;53.560;10.246;2023-04-10T00:36:25;101835.47;;;11.00;88.83
18749;BME280;9503;53.560;10.246;2023-04-10T00:38:52;101843.28;;;11.15;88.11
18749;BME280;9503;53.560;10.246;2023-04-10T00:41:18;101835.78;;;11.18;88.45
18749;BME280;9503;53.560;10.246;2023-04-10T00:43:45;101837.38;;;10.89;90.40
18749;BME280;9503;53.560;10.246;2023-04-10T00:46:12;101832.28;;;11.30;88.29
18749;BME280;9503;53.560;10.246;2023-04-10T00:48:40;101829.84;;;11.32;87.45
18749;BME280;9503;53.560;10.246;2023-04-10T00:51:07;101828.47;;;11.11;87.88
18749;BME280;9503;53.560;10.246;2023-04-10T00:53:33;101831.94;;;11.24;89.15
18749;BME280;9503;53.560;10.246;2023-04-10T00:56:01;101827.47;;;11.22;88.34
18749;BME280;9503;53.560;10.246;2023-04-10T00:58:27;101825.38;;;11.29;87.31
18749;BME280;9503;53.560;10.246;2023-04-10T01:00:54;101835.41;;;11.53;86.95
18749;BME280;9503;53.560;10.246;2023-04-10T01:03:21;101832.81;;;11.53;85.63
18749;BME280;9503;53.560;10.246;2023-04-10T01:05:58;101827.63;;;11.38;85.42
18749;BME280;9503;53.560;10.246;2023-04-10T01:08:35;101838.03;;;11.40;86.03
18749;BME280;9503;53.560;10.246;2023-04-10T01:11:07;101832.94;;;11.54;85.92
18749;BME280;9503;53.560;10.246;2023-04-10T01:13:42;101830.44;;;11.15;88.11
18749;BME280;9503;53.560;10.246;2023-04-10T01:16:15;101833.16;;;11.31;87.68
18749;BME280;9503;53.560;10.246;2023-04-10T01:18:48;101827.59;;;11.51;85.88
18749;BME280;9503;53.560;10.246;2023-04-10T01:21:17;101839.16;;;11.45;86.30
18749;BME280;9503;53.560;10.246;2023-04-10T01:24:13;101829.34;;;11.24;88.57
18749;BME280;9503;53.560;10.246;2023-04-10T01:27:03;101827.47;;;11.22;88.08
18749;BME280;9503;53.560;10.246;2023-04-10T01:29:35;101820.84;;;11.39;86.96
18749;BME280;9503;53.560;10.246;2023-04-10T01:32:09;101822.13;;;11.32;87.28
18749;BME280;9503;53.560;10.246;2023-04-10T01:34:39;101821.78;;;11.54;85.45
18749;BME280;9503;53.560;10.246;2023-04-10T01:37:11;101820.94;;;11.40;86.26
18749;BME280;9503;53.560;10.246;2023-04-10T01:39:40;101819.72;;;11.48;86.42
18749;BME280;9503;53.560;10.246;2023-04-10T01:42:09;101821.03;;;11.42;86.38
18749;BME280;9503;53.560;10.246;2023-04-10T01:44:41;101813.22;;;11.40;86.51
18749;BME280;9503;53.560;10.246;2023-04-10T01:47:09;101811.78;;;11.17;87.15
18749;BME280;9503;53.560;10.246;2023-04-10T01:49:39;101818.28;;;11.39;86.78
18749;BME280;9503;53.560;10.246;2023-04-10T01:52:09;101816.28;;;11.48;86.93
18749;BME280;9503;53.560;10.246;2023-04-10T01:54:37;101812.56;;;11.57;85.33
18749;BME280;9503;53.560;10.246;2023-04-10T01:57:04;101811.03;;;11.46;86.07
18749;BME280;9503;53.560;10.246;2023-04-10T01:59:31;101808.75;;;11.51;86.17
18749;BME280;9503;53.560;10.246;2023-04-10T02:01:59;101791.13;;;11.16;86.90
18749;BME280;9503;53.560;10.246;2023-04-10T02:04:26;101789.31;;;11.41;87.69
18749;BME280;9503;53.560;10.246;2023-04-10T02:07:01;101787.34;;;10.96;89.11
18749;BME280;9503;53.560;10.246;2023-04-10T02:09:34;101784.28;;;11.43;87.39
18749;BME280;9503;53.560;10.246;2023-04-10T02:12:04;101792.09;;;11.31;86.86
18749;BME280;9503;53.560;10.246;2023-04-10T02:14:35;101784.28;;;11.43;86.74
18749;BME280;9503;53.560;10.246;2023-04-10T02:17:03;101784.97;;;11.40;86.79
18749;BME280;9503;53.560;10.246;2023-04-10T02:19:32;101780.25;;;11.33;88.41
18749;BME280;9503;53.560;10.246;2023-04-10T02:21:59;101774.75;;;11.27;87.67
18749;BME280;9503;53.560;10.246;2023-04-10T02:24:27;101766.63;;;11.34;87.23
18749;BME280;9503;53.560;10.246;2023-04-10T02:26:54;101764.34;;;11.39;87.19
18749;BME280;9503;53.560;10.246;2023-04-10T02:29:22;101761.09;;;11.28;88.25
18749;BME280;9503;53.560;10.246;2023-04-10T02:31:48;101761.91;;;11.27;88.47
18749;BME280;9503;53.560;10.246;2023-04-10T02:34:16;101761.59;;;11.22;88.50
18749;BME280;9503;53.560;10.246;2023-04-10T02:36:43;101763.84;;;11.03;88.93
18749;BME280;9503;53.560;10.246;2023-04-10T02:39:10;101761.91;;;11.27;88.05
18749;BME280;9503;53.560;10.246;2023-04-10T02:41:36;101760.78;;;11.37;86.81
18749;BME280;9503;53.560;10.246;2023-04-10T02:44:03;101759.81;;;11.62;85.97
18749;BME280;9503;53.560;10.246;2023-04-10T02:46:31;101758.34;;;11.53;85.82
18749;BME280;9503;53.560;10.246;2023-04-10T02:48:57;101759.53;;;11.58;86.42
18749;BME280;9503;53.560;10.246;2023-04-10T02:51:25;101755.59;;;11.22;86.45
18749;BME280;9503;53.560;10.246;2023-04-10T02:53:52;101756.81;;;11.42;86.39
18749;BME280;9503;53.560;10.246;2023-04-10T02:56:18;101759.84;;;11.49;86.24
18749;BME280;9503;53.560;10.246;2023-04-10T02:58:45;101759.56;;;11.45;86.42
18749;BME280;9503;53.560;10.246;2023-04-10T03:01:12;101753.97;;;11.65;85.98
18749;BME280;9503;53.560;10.246;2023-04-10T03:03:38;101749.25;;;11.58;85.40
18749;BME280;9503;53.560;10.246;2023-04-10T03:06:07;101749.78;;;11.67;84.24
18749;BME280;9503;53.560;10.246;2023-04-10T03:08:35;101746.00;;;11.60;84.67
18749;BME280;9503;53.560;10.246;2023-04-10T03:11:02;101737.63;;;11.22;85.55
18749;BME280;9503;53.560;10.246;2023-04-10T03:13:28;101738.06;;;11.43;86.04
18749;BME280;9503;53.560;10.246;2023-04-10T03:15:55;101733.66;;;11.55;84.92
18749;BME280;9503;53.560;10.246;2023-04-10T03:18:22;101728.91;;;11.33;86.13
18749;BME280;9503;53.560;10.246;2023-04-10T03:20:48;101720.16;;;11.16;86.00
18749;BME280;9503;53.560;10.246;2023-04-10T03:23:15;101722.03;;;11.19;87.20
18749;BME280;9503;53.560;10.246;2023-04-10T03:25:43;101718.25;;;11.27;86.10
18749;BME280;9503;53.560;10.246;2023-04-10T03:28:09;101720.41;;;11.34;86.75
18749;BME280;9503;53.560;10.246;2023-04-10T03:30:36;101726.44;;;11.34;85.98
18749;BME280;9503;53.560;10.246;2023-04-10T03:33:03;101726.56;;;10.82;87.67
18749;BME280;9503;53.560;10.246;2023-04-10T03:35:29;101715.91;;;10.89;89.13
18749;BME280;9503;53.560;10.246;2023-04-10T03:37:56;101723.38;;;10.99;88.22
18749;BME280;9503;53.560;10.246;2023-04-10T03:40:22;101711.47;;;11.14;86.54
18749;BME280;9503;53.560;10.246;2023-04-10T03:42:50;101708.53;;;11.08;86.40
18749;BME280;9503;53.560;10.246;2023-04-10T03:45:17;101704.28;;;11.08;86.36
18749;BME280;9503;53.560;10.246;2023-04-10T03:47:44;101703.06;;;10.89;87.23
18749;BME280;9503;53.560;10.246;2023-04-10T03:50:10;101701.09;;;10.71;87.05
18749;BME280;9503;53.560;10.246;2023-04-10T03:52:39;101698.94;;;10.77;87.73
18749;BME280;9503;53.560;10.246;2023-04-10T03:55:06;101699.63;;;10.88;87.73
18749;BME280;9503;53.560;10.246;2023-04-10T03:57:33;101703.94;;;11.02;87.27
18749;BME280;9503;53.560;10.246;2023-04-10T04:00:01;101701.19;;;10.86;87.53
18749;BME280;9503;53.560;10.246;2023-04-10T04:02:28;101706.03;;;10.95;86.88
18749;BME280;9503;53.560;10.246;2023-04-10T04:04:54;101697.13;;;11.03;85.82
18749;BME280;9503;53.560;10.246;2023-04-10T04:07:21;101701.53;;;11.05;85.79
18749;BME280;9503;53.560;10.246;2023-04-10T04:09:48;101697.19;;;11.18;85.02
18749;BME280;9503;53.560;10.246;2023-04-10T04:12:14;101694.81;;;11.07;84.78
18749;BME280;9503;53.560;10.246;2023-04-10T04:14:41;101698.19;;;11.06;85.57
18749;BME280;9503;53.560;10.246;2023-04-10T04:17:10;101692.66;;;11.00;85.49
18749;BME280;9503;53.560;10.246;2023-04-10T04:19:37;101692.75;;;10.74;86.54
18749;BME280;9503;53.560;10.246;2023-04-10T04:22:03;101697.28;;;10.65;87.82
18749;BME280;9503;53.560;10.246;2023-04-10T04:24:30;101691.69;;;10.98;86.10
18749;BME280;9503;53.560;10.246;2023-04-10T04:26:56;101695.72;;;10.67;87.28
18749;BME280;9503;53.560;10.246;2023-04-10T04:29:23;101692.06;;;11.04;85.78
18749;BME280;9503;53.560;10.246;2023-04-10T04:31:49;101698.53;;;10.85;86.41
18749;BME280;9503;53.560;10.246;2023-04-10T04:34:17;101693.56;;;10.46;88.39
18749;BME280;9503;53.560;10.246;2023-04-10T04:36:44;101701.34;;;10.61;87.52
18749;BME280;9503;53.560;10.246;2023-04-10T04:39:11;101696.47;;;10.79;87.52
18749;BME280;9503;53.560;10.246;2023-04-10T04:41:37;101695.22;;;10.59;88.26
18749;BME280;9503;53.560;10.246;2023-04-10T04:44:04;101705.66;;;10.75;87.40
18749;BME280;9503;53.560;10.246;2023-04-10T04:46:31;101696.19;;;10.74;87.33
18749;BME280;9503;53.560;10.246;2023-04-10T04:48:57;101695.84;;;10.96;86.18
18749;BME280;9503;53.560;10.246;2023-04-10T04:51:25;101689.03;;;10.97;86.47
18749;BME280;9503;53.560;10.246;2023-04-10T04:53:52;101696.25;;;10.89;86.35
18749;BME280;9503;53.560;10.246;2023-04-10T04:56:18;101701.88;;;10.97;86.62
18749;BME280;9503;53.560;10.246;2023-04-10T04:58:45;101698.13;;;10.78;86.18
18749;BME280;9503;53.560;10.246;2023-04-10T05:01:12;101690.97;;;11.01;87.20
18749;BME280;9503;53.560;10.246;2023-04-10T05:03:38;101690.22;;;11.02;87.29
18749;BME280;9503;53.560;10.246;2023-04-10T05:06:06;101697.38;;;11.07;86.99
18749;BME280;9503;53.560;10.246;2023-04-10T05:08:34;101694.16;;;10.97;87.41
18749;BME280;9503;53.560;10.246;2023-04-10T05:11:00;101696.25;;;10.89;87.13
18749;BME280;9503;53.560;10.246;2023-04-10T05:13:27;101697.28;;;11.06;86.87
18749;BME280;9503;53.560;10.246;2023-04-10T05:15:53;101701.47;;;10.91;86.67
18749;BME280;9503;53.560;10.246;2023-04-10T05:18:20;101703.16;;;10.90;87.00
18749;BME280;9503;53.560;10.246;2023-04-10T05:20:48;101702.13;;;11.01;88.54
18749;BME280;9503;53.560;10.246;2023-04-10T05:23:14;101703.31;;;11.34;86.59
18749;BME280;9503;53.560;10.246;2023-04-10T05:25:42;101703.34;;;10.93;88.37
18749;BME280;9503;53.560;10.246;2023-04-10T05:28:09;101693.81;;;11.19;87.71
18749;BME280;9503;53.560;10.246;2023-04-10T05:30:36;101695.53;;;11.76;87.73
18749;BME280;9503;53.560;10.246;2023-04-10T05:33:03;101694.13;;;12.25;85.82
18749;BME280;9503;53.560;10.246;2023-04-10T05:35:29;101692.28;;;13.16;83.37
18749;BME280;9503;53.560;10.246;2023-04-10T05:37:56;101699.78;;;13.27;80.09
18749;BME280;9503;53.560;10.246;2023-04-10T05:40:23;101691.97;;;13.42;78.08
18749;BME280;9503;53.560;10.246;2023-04-10T05:42:51;101685.41;;;13.81;77.21
18749;BME280;9503;53.560;10.246;2023-04-10T05:45:18;101686.75;;;15.17;74.14
18749;BME280;9503;53.560;10.246;2023-04-10T05:47:45;101695.41;;;14.45;72.12
18749;BME280;9503;53.560;10.246;2023-04-10T05:50:12;101694.44;;;15.16;71.34
18749;BME280;9503;53.560;10.246;2023-04-10T05:52:38;101695.59;;;15.61;69.59
18749;BME280;9503;53.560;10.246;2023-04-10T05:55:07;101696.25;;;15.77;68.52
18749;BME280;9503;53.560;10.246;2023-04-10T05:57:34;101691.63;;;14.92;71.10
18749;BME280;9503;53.560;10.246;2023-04-10T06:00:02;101683.34;;;14.99;69.73
18749;BME280;9503;53.560;10.246;2023-04-10T06:02:29;101682.59;;;15.79;68.28
18749;BME280;9503;53.560;10.246;2023-04-10T06:04:56;101681.59;;;16.61;65.11
18749;BME280;9503;53.560;10.246;2023-04-10T06:07:22;101686.22;;;16.90;62.96
18749;BME280;9503;53.560;10.246;2023-04-10T06:09:49;101685.88;;;16.17;64.19
18749;BME280;9503;53.560;10.246;2023-04-10T06:12:15;101680.38;;;16.52;63.79
18749;BME280;9503;53.560;10.246;2023-04-10T06:14:42;101675.91;;;16.05;64.05
18749;BME280;9503;53.560;10.246;2023-04-10T06:17:10;101675.69;;;16.00;64.71
18749;BME280;9503;53.560;10.246;2023-04-10T06:19:37;101671.28;;;15.77;66.05
18749;BME280;9503;53.560;10.246;2023-04-10T06:22:03;101661.50;;;15.70;65.70
18749;BME280;9503;53.560;10.246;2023-04-10T06:24:30;101661.91;;;15.60;65.91
18749;BME280;9503;53.560;10.246;2023-04-10T06:26:56;101657.00;;;15.06;67.19
18749;BME280;9503;53.560;10.246;2023-04-10T06:29:23;101653.00;;;15.34;67.38
18749;BME280;9503;53.560;10.246;2023-04-10T06:31:50;101648.81;;;15.57;67.20
18749;BME280;9503;53.560;10.246;2023-04-10T06:34:18;101642.28;;;16.05;66.23
18749;BME280;9503;53.560;10.246;2023-04-10T06:36:45;101647.50;;;16.27;64.42
18749;BME280;9503;53.560;10.246;2023-04-10T06:39:11;101640.63;;;16.73;63.50
18749;BME280;9503;53.560;10.246;2023-04-10T06:41:38;101639.09;;;16.55;62.40
18749;BME280;9503;53.560;10.246;2023-04-10T06:44:04;101639.09;;;17.48;61.57
18749;BME280;9503;53.560;10.246;2023-04-10T06:46:31;101639.44;;;17.33;60.82
18749;BME280;9503;53.560;10.246;2023-04-10T06:48:58;101632.63;;;17.62;60.45
18749;BME280;9503;53.560;10.246;2023-04-10T06:51:26;101638.13;;;17.46;60.25
18749;BME280;9503;53.560;10.246;2023-04-10T06:53:52;101633.16;;;17.52;59.93
18749;BME280;9503;53.560;10.246;2023-04-10T06:56:19;101624.75;;;17.59;60.24
18749;BME280;9503;53.560;10.246;2023-04-10T06:58:45;101633.16;;;17.52;60.59
18749;BME280;9503;53.560;10.246;2023-04-10T07:01:12;101627.44;;;17.37;60.88
18749;BME280;9503;53.560;10.246;2023-04-10T07:03:39;101626.91;;;17.22;61.71
18749;BME280;9503;53.560;10.246;2023-04-10T07:06:06;101621.03;;;17.51;60.01
18749;BME280;9503;53.560;10.246;2023-04-10T07:08:34;101626.41;;;18.08;59.73
18749;BME280;9503;53.560;10.246;2023-04-10T07:11:01;101621.69;;;17.97;59.79
18749;BME280;9503;53.560;10.246;2023-04-10T07:13:27;101625.50;;;17.55;60.61
18749;BME280;9503;53.560;10.246;2023-04-10T07:15:54;101625.59;;;17.58;59.76
18749;BME280;9503;53.560;10.246;2023-04-10T07:18:20;101622.38;;;18.18;58.00
18749;BME280;9503;53.560;10.246;2023-04-10T07:20:47;101621.69;;;18.23;56.88
18749;BME280;9503;53.560;10.246;2023-04-10T07:23:14;101619.56;;;18.39;56.35
18749;BME280;9503;53.560;10.246;2023-04-10T07:25:42;101614.41;;;18.67;55.17
18749;BME280;9503;53.560;10.246;2023-04-10T07:28:08;101617.16;;;19.35;54.36
18749;BME280;9503;53.560;10.246;2023-04-10T07:30:35;101622.00;;;19.21;54.24
18749;BME280;9503;53.560;10.246;2023-04-10T07:33:02;101615.34;;;19.01;54.68
18749;BME280;9503;53.560;10.246;2023-04-10T07:35:29;101615.97;;;18.64;55.08
18749;BME280;9503;53.560;10.246;2023-04-10T07:37:55;101611.09;;;17.39;57.12
18749;BME280;9503;53.560;10.246;2023-04-10T07:40:22;101607.09;;;17.73;56.66
18749;BME280;9503;53.560;10.246;2023-04-10T07:42:50;101601.84;;;18.54;55.83
18749;BME280;9503;53.560;10.246;2023-04-10T07:45:17;101608.16;;;19.55;53.88
18749;BME280;9503;53.560;10.246;2023-04-10T07:47:43;101609.78;;;19.52;52.85
18749;BME280;9503;53.560;10.246;2023-04-10T07:50:10;101595.81;;;18.55;53.94
18749;BME280;9503;53.560;10.246;2023-04-10T07:52:36;101602.97;;;18.62;53.94
18749;BME280;9503;53.560;10.246;2023-04-10T07:55:03;101598.41;;;18.55;53.76
18749;BME280;9503;53.560;10.246;2023-04-10T07:57:30;101596.19;;;18.96;53.77
18749;BME280;9503;53.560;10.246;2023-04-10T07:59:58;101593.97;;;18.80;54.47
18749;BME280;9503;53.560;10.246;2023-04-10T08:02:25;101593.16;;;19.12;53.76
18749;BME280;9503;53.560;10.246;2023-04-10T08:04:52;101594.31;;;18.63;54.76
18749;BME280;9503;53.560;10.246;2023-04-10T08:07:19;101602.75;;;19.15;53.48
18749;BME280;9503;53.560;10.246;2023-04-10T08:09:46;101585.72;;;18.94;53.81
18749;BME280;9503;53.560;10.246;2023-04-10T08:12:13;101599.03;;;18.46;54.48
18749;BME280;9503;53.560;10.246;2023-04-10T08:14:39;101585.91;;;19.02;53.06
18749;BME280;9503;53.560;10.246;2023-04-10T08:17:07;101588.13;;;19.18;52.62
18749;BME280;9503;53.560;10.246;2023-04-10T08:19:38;101583.66;;;19.80;52.17
18749;BME280;9503;53.560;10.246;2023-04-10T08:22:05;101580.81;;;19.38;52.35
18749;BME280;9503;53.560;10.246;2023-04-10T08:24:31;101583.88;;;19.90;52.40
18749;BME280;9503;53.560;10.246;2023-04-10T08:26:58;101576.91;;;19.54;52.09
18749;BME280;9503;53.560;10.246;2023-04-10T08:29:25;101580.03;;;19.74;52.07
18749;BME280;9503;53.560;10.246;2023-04-10T08:31:52;101579.69;;;19.60;52.14
18749;BME280;9503;53.560;10.246;2023-04-10T08:34:21;101567.78;;;20.06;51.70
18749;BME280;9503;53.560;10.246;2023-04-10T08:36:48;101566.59;;;19.57;52.40
18749;BME280;9503;53.560;10.246;2023-04-10T08:39:15;101566.84;;;20.04;51.65
18749;BME280;9503;53.560;10.246;2023-04-10T08:41:42;101564.00;;;19.93;51.27
18749;BME280;9503;53.560;10.246;2023-04-10T08:44:09;101561.16;;;20.59;50.02
18749;BME280;9503;53.560;10.246;2023-04-10T08:46:40;101558.53;;;21.02;49.38
18749;BME280;9503;53.560;10.246;2023-04-10T08:49:09;101551.75;;;20.66;49.33
18749;BME280;9503;53.560;10.246;2023-04-10T08:51:41;101555.28;;;20.71;50.25
18749;BME280;9503;53.560;10.246;2023-04-10T08:54:11;101550.31;;;20.82;49.57
18749;BME280;9503;53.560;10.246;2023-04-10T08:56:40;101546.47;;;21.08;50.08
18749;BME280;9503;53.560;10.246;2023-04-10T08:59:08;101543.41;;;20.85;49.81
18749;BME280;9503;53.560;10.246;2023-04-10T09:01:34;101540.88;;;20.88;50.35
18749;BME280;9503;53.560;10.246;2023-04-10T09:04:01;101533.81;;;21.30;49.87
18749;BME280;9503;53.560;10.246;2023-04-10T09:06:28;101531.03;;;20.72;50.51
18749;BME280;9503;53.560;10.246;2023-04-10T09:08:57;101530.75;;;21.05;50.38
18749;BME280;9503;53.560;10.246;2023-04-10T09:11:54;101528.00;;;20.97;50.22
18749;BME280;9503;53.560;10.246;2023-04-10T09:14:25;101527.72;;;21.28;49.67
18749;BME280;9503;53.560;10.246;2023-04-10T09:16:52;101513.28;;;21.49;49.43
18749;BME280;9503;53.560;10.246;2023-04-10T09:19:29;101517.69;;;21.04;49.58
18749;BME280;9503;53.560;10.246;2023-04-10T09:21:55;101511.16;;;20.79;48.98
18749;BME280;9503;53.560;10.246;2023-04-10T09:24:24;101503.75;;;21.51;48.55
18749;BME280;9503;53.560;10.246;2023-04-10T09:26:51;101502.16;;;21.60;48.81
18749;BME280;9503;53.560;10.246;2023-04-10T09:29:18;101495.84;;;22.06;48.18
18749;BME280;9503;53.560;10.246;2023-04-10T09:31:44;101498.41;;;22.01;47.80
18749;BME280;9503;53.560;10.246;2023-04-10T09:34:13;101486.19;;;21.99;47.65
18749;BME280;9503;53.560;10.246;2023-04-10T09:36:40;101483.66;;;22.05;46.96
18749;BME280;9503;53.560;10.246;2023-04-10T09:39:08;101478.69;;;22.22;46.17
18749;BME280;9503;53.560;10.246;2023-04-10T09:41:47;101474.84;;;21.97;46.40
18749;BME280;9503;53.560;10.246;2023-04-10T09:44:16;101466.75;;;22.44;45.66
18749;BME280;9503;53.560;10.246;2023-04-10T09:46:44;101464.66;;;22.17;46.12
18749;BME280;9503;53.560;10.246;2023-04-10T09:49:11;101460.97;;;22.74;45.32
18749;BME280;9503;53.560;10.246;2023-04-10T09:51:37;101455.91;;;22.86;44.82
18749;BME280;9503;53.560;10.246;2023-04-10T09:54:04;101442.50;;;22.57;44.51
18749;BME280;9503;53.560;10.246;2023-04-10T09:56:33;101447.88;;;22.71;44.41
18749;BME280;9503;53.560;10.246;2023-04-10T09:59:05;101437.84;;;23.16;43.67
18749;BME280;9503;53.560;10.246;2023-04-10T10:01:32;101426.31;;;22.93;43.25
18749;BME280;9503;53.560;10.246;2023-04-10T10:04:01;101419.28;;;22.86;43.02
18749;BME280;9503;53.560;10.246;2023-04-10T10:06:29;101406.88;;;23.81;42.59
18749;BME280;9503;53.560;10.246;2023-04-10T10:08:57;101411.41;;;22.84;42.79
18749;BME280;9503;53.560;10.246;2023-04-10T10:11:27;101408.81;;;22.86;42.76
18749;BME280;9503;53.560;10.246;2023-04-10T10:13:56;101395.88;;;23.06;42.80
18749;BME280;9503;53.560;10.246;2023-04-10T10:16:30;101389.69;;;22.92;42.25
18749;BME280;9503;53.560;10.246;2023-04-10T10:19:05;101384.66;;;23.17;41.64
18749;BME280;9503;53.560;10.246;2023-04-10T10:21:34;101371.47;;;23.02;41.91
18749;BME280;9503;53.560;10.246;2023-04-10T10:24:06;101366.66;;;23.66;41.50
18749;BME280;9503;53.560;10.246;2023-04-10T10:26:34;101372.91;;;24.07;40.88
18749;BME280;9503;53.560;10.246;2023-04-10T10:29:02;101373.56;;;23.58;41.00
18749;BME280;9503;53.560;10.246;2023-04-10T10:31:32;101363.94;;;23.51;40.72
18749;BME280;9503;53.560;10.246;2023-04-10T10:34:02;101359.25;;;23.04;41.57
18749;BME280;9503;53.560;10.246;2023-04-10T10:36:31;101358.63;;;23.42;40.69
18749;BME280;9503;53.560;10.246;2023-04-10T10:39:12;101351.00;;;23.86;40.37
18749;BME280;9503;53.560;10.246;2023-04-10T10:41:48;101354.69;;;24.51;40.68
18749;BME280;9503;53.560;10.246;2023-04-10T10:44:22;101336.22;;;24.16;40.31
18749;BME280;9503;53.560;10.246;2023-04-10T10:47:05;101328.41;;;24.26;40.65
18749;BME280;9503;53.560;10.246;2023-04-10T10:49:55;101334.50;;;24.15;39.91
18749;BME280;9503;53.560;10.246;2023-04-10T10:52:39;101321.47;;;24.48;40.64
18749;BME280;9503;53.560;10.246;2023-04-10T10:55:28;101310.94;;;24.32;39.06
18749;BME280;9503;53.560;10.246;2023-04-10T10:57:57;101306.59;;;24.35;39.01
18749;BME280;9503;53.560;10.246;2023-04-10T11:00:26;101302.16;;;24.07;39.66
18749;BME280;9503;53.560;10.246;2023-04-10T11:03:29;101298.72;;;24.93;39.16
18749;BME280;9503;53.560;10.246;2023-04-10T11:05:57;101296.97;;;25.07;38.40
18749;BME280;9503;53.560;10.246;2023-04-10T11:08:40;101295.84;;;25.70;38.00
18749;BME280;9503;53.560;10.246;2023-04-10T11:11:16;101292.28;;;25.89;37.67
18749;BME280;9503;53.560;10.246;2023-04-10T11:14:11;101276.84;;;24.93;38.20
18749;BME280;9503;53.560;10.246;2023-04-10T11:16:43;101274.19;;;23.80;39.61
18749;BME280;9503;53.560;10.246;2023-04-10T11:19:12;101262.88;;;24.19;39.40
18749;BME280;9503;53.560;10.246;2023-04-10T11:22:00;101261.97;;;24.06;39.25
18749;BME280;9503;53.560;10.246;2023-04-10T11:24:28;101271.63;;;24.74;38.56
18749;BME280;9503;53.560;10.246;2023-04-10T11:26:55;101256.78;;;24.32;38.57
18749;BME280;9503;53.560;10.246;2023-04-10T11:29:33;101257.63;;;24.22;39.17
18749;BME280;9503;53.560;10.246;2023-04-10T11:32:02;101252.44;;;24.56;38.93
18749;BME280;9503;53.560;10.246;2023-04-10T11:34:31;101229.66;;;24.16;38.81
18749;BME280;9503;53.560;10.246;2023-04-10T11:36:59;101221.69;;;23.57;38.90
18749;BME280;9503;53.560;10.246;2023-04-10T11:39:27;101220.09;;;24.44;37.90
18749;BME280;9503;53.560;10.246;2023-04-10T11:41:55;101220.97;;;24.46;37.31
18749;BME280;9503;53.560;10.246;2023-04-10T11:44:27;101212.16;;;24.75;37.69
18749;BME280;9503;53.560;10.246;2023-04-10T11:46:54;101221.75;;;24.87;37.28
18749;BME280;9503;53.560;10.246;2023-04-10T11:49:21;101217.31;;;25.18;36.91
18749;BME280;9503;53.560;10.246;2023-04-10T11:51:50;101202.28;;;25.52;36.74
18749;BME280;9503;53.560;10.246;2023-04-10T11:54:18;101204.66;;;25.92;35.57
18749;BME280;9503;53.560;10.246;2023-04-10T11:56:56;101193.69;;;25.16;35.57
18749;BME280;9503;53.560;10.246;2023-04-10T11:59:23;101196.16;;;25.51;35.44
18749;BME280;9503;53.560;10.246;2023-04-10T12:01:53;101193.56;;;25.41;35.62
18749;BME280;9503;53.560;10.246;2023-04-10T12:04:21;101189.25;;;25.35;35.95
18749;BME280;9503;53.560;10.246;2023-04-10T12:06:52;101184.16;;;24.88;35.89
18749;BME280;9503;53.560;10.246;2023-04-10T12:09:20;101172.91;;;24.21;36.29
18749;BME280;9503;53.560;10.246;2023-04-10T12:11:50;101174.63;;;24.64;35.54
18749;BME280;9503;53.560;10.246;2023-04-10T12:14:18;101162.41;;;24.32;36.03
18749;BME280;9503;53.560;10.246;2023-04-10T12:16:45;101172.91;;;24.44;36.29
18749;BME280;9503;53.560;10.246;2023-04-10T12:19:13;101151.94;;;24.46;36.23
18749;BME280;9503;53.560;10.246;2023-04-10T12:21:41;101163.16;;;24.91;36.14
18749;BME280;9503;53.560;10.246;2023-04-10T12:24:09;101139.28;;;25.46;35.19
18749;BME280;9503;53.560;10.246;2023-04-10T12:26:36;101149.84;;;25.37;34.53
18749;BME280;9503;53.560;10.246;2023-04-10T12:29:03;101136.34;;;25.93;35.12
18749;BME280;9503;53.560;10.246;2023-04-10T12:31:32;101133.03;;;25.62;35.52
18749;BME280;9503;53.560;10.246;2023-04-10T12:33:59;101135.50;;;25.88;34.49
18749;BME280;9503;53.560;10.246;2023-04-10T12:36:27;101131.69;;;26.24;34.38
18749;BME280;9503;53.560;10.246;2023-04-10T12:38:55;101130.38;;;25.74;34.90
18749;BME280;9503;53.560;10.246;2023-04-10T12:41:24;101128.31;;;26.07;34.37
18749;BME280;9503;53.560;10.246;2023-04-10T12:43:52;101132.41;;;26.38;34.61
18749;BME280;9503;53.560;10.246;2023-04-10T12:46:24;101124.38;;;25.52;34.37
18749;BME280;9503;53.560;10.246;2023-04-10T12:48:50;101135.94;;;25.18;35.60
18749;BME280;9503;53.560;10.246;2023-04-10T12:51:17;101121.09;;;25.20;35.07
18749;BME280;9503;53.560;10.246;2023-04-10T12:53:44;101115.09;;;24.86;35.71
18749;BME280;9503;53.560;10.246;2023-04-10T12:56:12;101104.31;;;25.41;35.09
18749;BME280;9503;53.560;10.246;2023-04-10T12:58:40;101112.28;;;25.28;35.50